createdAt,value
2019-03-26T00:05:00.813Z,10.70
2019-03-26T00:10:10.286Z,10.75
2019-03-26T00:12:45.715Z,10.87
2019-03-26T00:15:21.293Z,11.00
2019-03-26T00:17:56.697Z,10.73
2019-03-26T00:20:32.285Z,10.10
2019-03-26T00:23:07.668Z,10.48
2019-03-26T00:25:43.280Z,10.60
2019-03-26T00:28:18.659Z,9.93
2019-03-26T00:30:53.900Z,11.15
2019-03-26T00:36:04.306Z,9.13
2019-03-26T00:38:39.749Z,10.23
2019-03-26T00:43:48.704Z,10.20
2019-03-26T00:46:24.289Z,10.03
2019-03-26T00:48:59.670Z,9.80
2019-03-26T00:51:35.289Z,8.63
2019-03-26T00:54:10.704Z,13.10
2019-03-26T00:56:46.287Z,7.92
2019-03-26T01:00:56.319Z,7.65
2019-03-26T01:03:31.694Z,8.17
2019-03-26T01:08:41.789Z,8.10
2019-03-26T01:13:50.664Z,8.10
2019-03-26T01:16:26.270Z,7.42
2019-03-26T01:19:01.684Z,7.30
2019-03-26T01:21:37.883Z,7.10
2019-03-26T01:24:12.932Z,7.90
2019-03-26T01:29:21.680Z,7.97
2019-03-26T01:31:56.950Z,7.47
2019-03-26T01:34:45.251Z,7.90
2019-03-26T01:37:09.350Z,8.68
2019-03-26T01:39:44.670Z,9.03
2019-03-26T01:42:19.937Z,9.00
2019-03-26T01:47:29.670Z,7.67
2019-03-26T01:50:04.936Z,8.10
2019-03-26T01:52:40.319Z,7.27
2019-03-26T01:55:15.688Z,7.57
2019-03-26T01:57:51.270Z,7.45
2019-03-26T02:00:26.669Z,7.90
2019-03-26T02:03:02.298Z,7.35
2019-03-26T02:05:37.700Z,7.10
2019-03-26T02:08:13.282Z,8.03
2019-03-26T02:10:48.633Z,7.40
2019-03-26T02:13:24.288Z,8.70
2019-03-26T02:15:59.670Z,7.73
2019-03-26T02:18:35.275Z,7.62
2019-03-26T02:21:11.310Z,6.77
2019-03-26T02:23:46.688Z,7.20
2019-03-26T02:26:22.245Z,6.87
2019-03-26T02:28:57.671Z,6.93
2019-03-26T02:31:32.876Z,6.20
2019-03-26T02:36:41.875Z,7.00
2019-03-26T02:41:50.875Z,7.40
2019-03-26T02:46:59.796Z,7.40
2019-03-26T02:49:35.081Z,7.37
2019-03-26T02:52:10.309Z,6.63
2019-03-26T02:54:45.705Z,7.43
2019-03-26T02:57:21.172Z,6.60
2019-03-26T02:59:56.342Z,7.17
2019-03-26T03:02:31.670Z,7.17
2019-03-26T03:05:07.267Z,6.83
2019-03-26T03:07:42.703Z,7.47
2019-03-26T03:10:18.297Z,6.57
2019-03-26T03:12:53.680Z,6.37
2019-03-26T03:15:29.125Z,6.50
2019-03-26T03:18:04.346Z,6.73
2019-03-26T03:20:39.689Z,6.70
2019-03-26T03:23:15.291Z,6.50
2019-03-26T03:25:50.694Z,6.33
2019-03-26T03:28:26.276Z,6.53
2019-03-26T03:31:01.656Z,6.73
2019-03-26T03:33:37.274Z,6.33
2019-03-26T03:36:12.675Z,5.90
2019-03-26T03:38:48.273Z,6.37
2019-03-26T03:41:23.669Z,6.50
2019-03-26T03:43:58.886Z,5.93
2019-03-26T03:49:07.785Z,5.60
2019-03-26T03:51:45.262Z,6.57
2019-03-26T03:54:21.334Z,5.77
2019-03-26T03:56:58.709Z,6.40
2019-03-26T03:59:35.280Z,6.43
2019-03-26T04:02:10.652Z,5.83
2019-03-26T04:04:45.923Z,5.90
2019-03-26T04:07:21.290Z,6.03
2019-03-26T04:09:56.647Z,5.57
2019-03-26T04:12:31.901Z,6.00
2019-03-26T04:15:07.568Z,6.60
2019-03-26T04:17:42.915Z,6.67
2019-03-26T04:22:51.677Z,6.50
2019-03-26T04:25:27.142Z,7.13
2019-03-26T04:28:02.335Z,7.27
2019-03-26T04:30:37.859Z,7.12
2019-03-26T04:35:46.674Z,8.17
2019-03-26T04:38:22.282Z,8.50
2019-03-26T04:40:57.683Z,8.40
2019-03-26T04:43:33.253Z,8.20
2019-03-26T04:46:08.707Z,9.38
2019-03-26T04:49:47.775Z,8.45
2019-03-26T04:52:23.335Z,8.73
2019-03-26T04:54:58.705Z,10.28
2019-03-26T04:57:34.267Z,9.77
2019-03-26T05:00:10.123Z,9.97
2019-03-26T05:02:45.638Z,11.08
2019-03-26T05:05:20.863Z,9.93
2019-03-26T05:07:56.261Z,11.30
2019-03-26T05:10:31.702Z,15.80
2019-03-26T05:13:07.247Z,10.08
2019-03-26T05:15:42.692Z,10.97
2019-03-26T05:18:18.281Z,11.03
2019-03-26T05:20:53.674Z,11.83
2019-03-26T05:23:29.267Z,9.55
2019-03-26T05:26:04.771Z,11.20
2019-03-26T05:28:40.143Z,11.80
2019-03-26T05:31:15.540Z,10.90
2019-03-26T05:33:52.239Z,9.95
2019-03-26T05:36:27.677Z,11.57
2019-03-26T05:39:03.073Z,10.85
2019-03-26T05:41:38.312Z,12.03
2019-03-26T05:44:13.662Z,12.07
2019-03-26T05:46:49.274Z,12.15
2019-03-26T05:49:24.672Z,14.33
2019-03-26T05:52:00.867Z,12.63
2019-03-26T05:54:36.280Z,13.10
2019-03-26T05:57:11.636Z,13.62
2019-03-26T05:59:46.935Z,13.95
2019-03-26T06:04:56.273Z,11.63
2019-03-26T06:07:31.672Z,12.00
2019-03-26T06:10:08.342Z,11.88
2019-03-26T06:12:43.650Z,12.37
2019-03-26T06:15:19.281Z,12.55
2019-03-26T06:17:57.452Z,11.45
2019-03-26T06:20:31.677Z,11.50
2019-03-26T06:23:07.288Z,10.57
2019-03-26T06:25:42.645Z,11.38
2019-03-26T06:28:17.926Z,11.35
2019-03-26T06:30:53.269Z,9.70
2019-03-26T06:33:28.651Z,9.35
2019-03-26T06:36:03.891Z,9.27
2019-03-26T06:41:12.771Z,9.57
2019-03-26T06:46:21.686Z,9.23
2019-03-26T06:48:57.190Z,9.03
2019-03-26T06:51:32.685Z,9.20
2019-03-26T06:54:08.279Z,7.93
2019-03-26T06:59:29.596Z,7.45
2019-03-26T07:02:05.342Z,7.43
2019-03-26T07:04:47.893Z,7.20
2019-03-26T07:11:32.688Z,6.50
2019-03-26T07:14:08.724Z,7.78
2019-03-26T07:16:44.255Z,7.43
2019-03-26T07:19:19.656Z,7.37
2019-03-26T07:21:54.866Z,7.50
2019-03-26T07:27:03.732Z,7.50
2019-03-26T07:29:39.266Z,7.42
2019-03-26T07:32:14.635Z,7.47
2019-03-26T07:34:49.878Z,7.73
2019-03-26T07:39:58.666Z,7.73
2019-03-26T07:42:33.879Z,9.17
2019-03-26T07:47:43.258Z,7.78
2019-03-26T07:50:18.642Z,7.83
2019-03-26T07:52:55.276Z,7.25
2019-03-26T07:55:30.755Z,13.98
2019-03-26T08:00:40.783Z,8.23
2019-03-26T08:03:16.268Z,7.93
2019-03-26T08:05:51.640Z,8.67
2019-03-26T08:08:27.249Z,8.03
2019-03-26T08:11:02.640Z,8.00
2019-03-26T08:13:40.875Z,7.27
2019-03-26T08:16:14.880Z,8.13
2019-03-26T08:21:23.713Z,8.05
2019-03-26T08:23:59.260Z,7.70
2019-03-26T08:26:34.685Z,7.03
2019-03-26T08:29:10.253Z,6.80
2019-03-26T08:31:45.685Z,8.23
2019-03-26T08:34:21.294Z,7.00
2019-03-26T08:36:56.688Z,6.83
2019-03-26T08:39:32.242Z,7.42
2019-03-26T08:42:07.631Z,6.87
2019-03-26T08:44:42.851Z,6.87
2019-03-26T08:47:18.271Z,6.63
2019-03-26T08:49:53.638Z,7.03
2019-03-26T08:52:28.931Z,8.35
2019-03-26T08:55:04.449Z,7.35
2019-03-26T08:57:39.929Z,6.65
2019-03-26T09:00:15.673Z,8.75
2019-03-26T09:02:51.263Z,6.70
2019-03-26T09:05:26.631Z,7.20
2019-03-26T09:08:01.885Z,7.00
2019-03-26T09:10:37.267Z,7.30
2019-03-26T09:13:12.654Z,6.77
2019-03-26T09:15:48.310Z,7.43
2019-03-26T09:18:23.671Z,6.83
2019-03-26T09:20:58.945Z,9.73
2019-03-26T09:26:07.711Z,6.43
2019-03-26T09:28:43.280Z,7.07
2019-03-26T09:31:18.642Z,6.30
2019-03-26T09:33:54.272Z,10.13
2019-03-26T09:36:29.629Z,5.80
2019-03-26T09:39:05.674Z,5.97
2019-03-26T09:41:41.272Z,6.62
2019-03-26T09:44:16.641Z,4.87
2019-03-26T09:46:52.144Z,5.03
2019-03-26T09:49:27.349Z,4.80
2019-03-26T09:52:02.676Z,4.30
2019-03-26T09:54:38.289Z,4.50
2019-03-26T09:57:13.797Z,4.37
2019-03-26T09:59:49.279Z,5.20
2019-03-26T10:02:24.642Z,5.30
2019-03-26T10:04:59.939Z,4.40
2019-03-26T10:10:10.621Z,3.97
2019-03-26T10:12:45.907Z,4.83
2019-03-26T10:15:21.290Z,4.75
2019-03-26T10:17:56.665Z,4.27
2019-03-26T10:20:32.288Z,4.70
2019-03-26T10:23:07.661Z,3.87
2019-03-26T10:25:42.918Z,3.60
2019-03-26T10:28:18.131Z,3.75
2019-03-26T10:30:53.341Z,4.37
2019-03-26T10:33:28.673Z,4.20
2019-03-26T10:36:04.261Z,3.97
2019-03-26T10:38:39.671Z,4.53
2019-03-26T10:41:18.496Z,4.40
2019-03-26T10:43:52.281Z,3.77
2019-03-26T10:46:27.672Z,3.80
2019-03-26T10:49:03.124Z,3.73
2019-03-26T10:51:38.328Z,3.70
2019-03-26T10:54:13.651Z,2.80
2019-03-26T10:56:48.917Z,3.47
2019-03-26T10:59:24.275Z,2.50
2019-03-26T11:02:00.051Z,2.37
2019-03-26T11:04:35.668Z,3.23
2019-03-26T11:07:10.939Z,2.45
2019-03-26T11:09:46.282Z,2.35
2019-03-26T11:12:21.703Z,2.13
2019-03-26T11:14:57.261Z,2.35
2019-03-26T11:17:32.698Z,2.60
2019-03-26T11:20:08.785Z,5.33
2019-03-26T11:25:18.102Z,2.00
2019-03-26T11:27:53.637Z,2.53
2019-03-26T11:30:28.907Z,2.40
2019-03-26T11:38:12.735Z,2.02
2019-03-26T11:40:48.277Z,2.27
2019-03-26T11:43:23.874Z,2.10
2019-03-26T11:48:32.886Z,1.93
2019-03-26T11:53:41.698Z,2.10
2019-03-26T11:56:17.295Z,1.87
2019-03-26T11:58:52.732Z,1.77
2019-03-26T12:01:28.280Z,2.00
2019-03-26T12:04:03.768Z,1.52
2019-03-26T12:06:38.903Z,2.30
2019-03-26T12:09:14.277Z,1.92
2019-03-26T12:11:49.688Z,2.20
2019-03-26T12:14:24.922Z,2.30
2019-03-26T12:18:11.340Z,2.87
2019-03-26T12:20:46.697Z,2.47
2019-03-26T12:23:22.274Z,2.12
2019-03-26T12:25:57.690Z,1.90
2019-03-26T12:28:33.262Z,2.10
2019-03-26T12:31:08.787Z,2.30
2019-03-26T12:36:17.679Z,1.90
2019-03-26T12:38:53.136Z,1.92
2019-03-26T12:41:28.667Z,1.80
2019-03-26T12:44:03.895Z,1.60
2019-03-26T12:49:12.679Z,1.60
2019-03-26T12:51:47.928Z,1.60
2019-03-26T12:54:23.281Z,1.55
2019-03-26T12:56:58.689Z,1.67
2019-03-26T12:59:34.433Z,1.63
2019-03-26T13:02:10.274Z,2.10
2019-03-26T13:04:45.658Z,1.93
2019-03-26T13:07:21.246Z,2.17
2019-03-26T13:09:56.678Z,1.57
2019-03-26T13:12:32.246Z,1.50
2019-03-26T13:15:09.276Z,1.80
2019-03-26T13:17:44.662Z,1.80
2019-03-26T13:20:20.136Z,1.80
2019-03-26T13:22:55.689Z,1.87
2019-03-26T13:25:31.156Z,1.92
2019-03-26T13:28:06.709Z,1.83
2019-03-26T13:30:42.106Z,1.80
2019-03-26T13:33:17.324Z,2.17
2019-03-26T13:35:52.650Z,1.77
2019-03-26T13:38:27.919Z,1.70
2019-03-26T13:41:03.269Z,2.22
2019-03-26T13:43:38.709Z,1.60
2019-03-26T13:46:14.281Z,4.03
2019-03-26T13:48:49.668Z,6.92
2019-03-26T13:51:24.930Z,1.60
2019-03-26T13:54:00.290Z,1.67
2019-03-26T13:56:35.672Z,2.03
2019-03-26T13:59:11.255Z,1.60
2019-03-26T14:01:46.678Z,2.77
2019-03-26T14:04:21.864Z,1.82
2019-03-26T14:09:30.769Z,1.80
2019-03-26T14:14:39.727Z,2.10
2019-03-26T14:17:15.929Z,2.30
2019-03-26T14:19:51.289Z,8.90
2019-03-26T14:22:26.665Z,1.77
2019-03-26T14:25:01.893Z,1.77
2019-03-26T14:30:12.589Z,1.70
2019-03-26T14:32:47.891Z,1.72
2019-03-26T14:37:56.776Z,1.60
2019-03-26T14:40:32.271Z,1.40
2019-03-26T14:43:08.111Z,1.83
2019-03-26T14:45:43.660Z,1.73
2019-03-26T14:48:19.249Z,1.60
2019-03-26T14:50:54.665Z,2.03
2019-03-26T14:53:30.269Z,2.10
2019-03-26T14:56:05.662Z,1.90
2019-03-26T14:58:41.926Z,2.10
2019-03-26T15:01:17.280Z,1.80
2019-03-26T15:03:52.690Z,1.97
2019-03-26T15:06:28.257Z,2.37
2019-03-26T15:09:04.275Z,2.20
2019-03-26T15:11:39.871Z,2.47
2019-03-26T15:18:37.783Z,2.40
2019-03-26T15:21:13.268Z,2.15
2019-03-26T15:23:48.678Z,2.07
2019-03-26T15:26:23.882Z,2.25
2019-03-26T15:31:32.834Z,2.33
2019-03-26T15:34:08.331Z,2.33
2019-03-26T15:36:43.650Z,2.73
2019-03-26T15:39:19.273Z,2.30
2019-03-26T15:41:54.678Z,2.77
2019-03-26T15:44:29.883Z,2.47
2019-03-26T15:49:38.866Z,2.30
2019-03-26T15:54:47.888Z,2.10
2019-03-26T15:59:56.900Z,2.47
2019-03-26T16:05:06.276Z,2.55
2019-03-26T16:07:41.704Z,2.83
2019-03-26T16:10:17.279Z,2.10
2019-03-26T16:12:52.730Z,2.47
2019-03-26T16:15:28.264Z,3.10
2019-03-26T16:18:03.884Z,1.95
2019-03-26T16:23:06.400Z,2.22
2019-03-26T16:25:42.279Z,2.30
2019-03-26T16:28:17.726Z,2.05
2019-03-26T16:30:53.277Z,2.15
2019-03-26T16:33:28.729Z,2.40
2019-03-26T16:36:04.288Z,2.23
2019-03-26T16:38:39.687Z,2.23
2019-03-26T16:41:15.269Z,2.65
2019-03-26T16:43:50.681Z,2.30
2019-03-26T16:46:26.271Z,2.27
2019-03-26T16:49:01.770Z,2.80
2019-03-26T16:51:37.325Z,3.17
2019-03-26T16:54:12.745Z,2.03
2019-03-26T16:56:48.236Z,2.40
2019-03-26T17:01:35.676Z,2.17
2019-03-26T17:04:11.263Z,2.92
2019-03-26T17:06:46.667Z,2.17
2019-03-26T17:09:22.260Z,3.03
2019-03-26T17:12:03.575Z,2.13
2019-03-26T17:14:34.679Z,2.23
2019-03-26T17:17:10.284Z,2.52
2019-03-26T17:19:45.693Z,2.63
2019-03-26T17:22:21.278Z,2.60
2019-03-26T17:24:56.691Z,2.53
2019-03-26T17:27:32.290Z,2.97
2019-03-26T17:30:09.765Z,2.27
2019-03-26T17:32:45.323Z,2.70
2019-03-26T17:35:20.783Z,2.37
2019-03-26T17:37:59.883Z,2.80
2019-03-26T17:40:33.328Z,3.50
2019-03-26T17:43:08.644Z,2.77
2019-03-26T17:45:44.276Z,3.27
2019-03-26T17:48:19.653Z,3.10
2019-03-26T17:50:55.300Z,3.27
2019-03-26T17:53:30.781Z,3.13
2019-03-26T17:56:06.292Z,5.08
2019-03-26T17:58:41.722Z,3.37
2019-03-26T18:01:17.306Z,3.10
2019-03-26T18:03:52.684Z,2.97
2019-03-26T18:06:27.933Z,3.00
2019-03-26T18:09:03.471Z,3.65
2019-03-26T18:11:39.385Z,3.20
2019-03-26T18:14:14.942Z,3.52
2019-03-26T18:19:23.936Z,3.30
2019-03-26T18:24:33.289Z,3.43
2019-03-26T18:27:08.902Z,3.30
2019-03-26T18:32:17.948Z,6.40
2019-03-26T18:34:53.309Z,3.40
2019-03-26T18:37:28.682Z,3.70
2019-03-26T18:40:04.348Z,3.70
2019-03-26T18:42:44.287Z,3.83
2019-03-26T18:45:17.276Z,3.60
2019-03-26T18:50:13.948Z,3.40
2019-03-26T18:52:49.686Z,3.80
2019-03-26T18:55:25.503Z,4.50
2019-03-26T18:58:00.887Z,3.67
2019-03-26T19:00:38.206Z,4.03
2019-03-26T19:03:13.729Z,3.73
2019-03-26T19:05:49.256Z,3.73
2019-03-26T19:08:24.638Z,3.53
2019-03-26T19:11:00.274Z,4.03
2019-03-26T19:13:35.678Z,4.17
2019-03-26T19:16:11.278Z,4.90
2019-03-26T19:18:46.695Z,5.97
2019-03-26T19:21:22.243Z,4.90
2019-03-26T19:25:57.710Z,4.62
2019-03-26T19:28:33.278Z,4.60
2019-03-26T19:31:08.727Z,4.50
2019-03-26T19:33:44.266Z,4.20
2019-03-26T19:36:19.683Z,4.67
2019-03-26T19:38:55.274Z,3.83
2019-03-26T19:41:30.681Z,3.53
2019-03-26T19:44:06.299Z,4.60
2019-03-26T19:46:41.707Z,4.17
2019-03-26T19:49:17.271Z,4.30
2019-03-26T19:51:52.731Z,4.13
2019-03-26T19:54:28.281Z,4.60
2019-03-26T19:57:03.715Z,4.50
2019-03-26T19:59:39.259Z,3.00
2019-03-26T20:02:14.689Z,3.67
2019-03-26T20:04:50.254Z,3.33
2019-03-26T20:07:25.875Z,3.70
2019-03-26T20:15:11.735Z,3.50
2019-03-26T20:17:47.277Z,3.90
2019-03-26T20:20:22.890Z,4.00
2019-03-26T20:22:59.285Z,4.20
2019-03-26T20:25:34.998Z,4.20
2019-03-26T20:28:11.670Z,4.37
2019-03-26T20:30:47.278Z,5.43
2019-03-26T20:33:22.693Z,5.13
2019-03-26T20:35:58.286Z,5.53
2019-03-26T20:38:33.921Z,5.80
2019-03-26T20:43:43.301Z,5.83
2019-03-26T20:46:18.685Z,5.53
2019-03-26T20:48:54.703Z,4.67
2019-03-26T20:51:30.281Z,5.27
2019-03-26T20:54:05.726Z,5.83
2019-03-26T20:56:41.467Z,5.17
2019-03-26T20:59:17.282Z,5.30
2019-03-26T21:01:53.692Z,5.20
2019-03-26T21:04:29.275Z,5.57
2019-03-26T21:07:04.796Z,5.07
2019-03-26T21:09:40.278Z,5.47
2019-03-26T21:12:15.665Z,5.83
2019-03-26T21:14:51.275Z,5.37
2019-03-26T21:17:26.643Z,5.40
2019-03-26T21:20:02.267Z,4.87
2019-03-26T21:22:37.695Z,5.30
2019-03-26T21:25:13.731Z,5.97
2019-03-26T21:27:49.302Z,6.00
2019-03-26T21:30:24.960Z,6.03
2019-03-26T21:33:00.375Z,6.00
2019-03-26T21:35:35.902Z,6.20
2019-03-26T21:38:11.314Z,24.07
2019-03-26T21:40:47.536Z,15.23
2019-03-26T21:43:23.288Z,5.10
2019-03-26T21:45:59.888Z,6.58
2019-03-26T21:51:10.436Z,5.93
2019-03-26T21:53:46.370Z,5.60
2019-03-26T21:56:21.867Z,6.20
2019-03-26T22:01:31.913Z,6.27
2019-03-26T22:04:07.880Z,6.10
2019-03-26T22:06:43.433Z,5.90
2019-03-26T22:09:19.469Z,5.67
2019-03-26T22:11:55.297Z,6.07
2019-03-26T22:14:31.284Z,6.03
2019-03-26T22:17:07.324Z,5.83
2019-03-26T22:19:43.294Z,5.23
2019-03-26T22:22:19.156Z,35.00
2019-03-26T22:24:55.290Z,16.93
2019-03-26T22:27:31.296Z,6.37
2019-03-26T22:30:09.039Z,5.93
2019-03-26T22:32:44.950Z,6.33
2019-03-26T22:35:20.401Z,5.78
2019-03-26T22:37:56.329Z,6.62
2019-03-26T22:40:32.314Z,6.23
2019-03-26T22:43:08.726Z,5.78
2019-03-26T22:48:19.312Z,5.93
2019-03-26T22:50:55.130Z,6.27
2019-03-26T22:53:30.961Z,6.17
2019-03-26T22:56:07.301Z,5.50
2019-03-26T22:58:43.432Z,5.97
2019-03-26T23:01:19.498Z,5.80
2019-03-26T23:03:56.443Z,5.90
2019-03-26T23:06:32.510Z,6.33
2019-03-26T23:09:09.321Z,5.42
2019-03-26T23:11:46.375Z,5.83
2019-03-26T23:14:22.297Z,6.17
2019-03-26T23:16:57.953Z,6.73
2019-03-26T23:22:08.291Z,6.10
2019-03-26T23:24:44.315Z,6.60
2019-03-26T23:27:20.294Z,6.23
2019-03-26T23:29:56.552Z,5.70
2019-03-26T23:32:32.891Z,6.47
2019-03-26T23:37:43.304Z,6.03
2019-03-26T23:40:19.977Z,6.83
2019-03-26T23:42:55.754Z,7.67
2019-03-26T23:45:31.540Z,7.83
2019-03-26T23:48:07.693Z,6.57
2019-03-26T23:50:43.369Z,7.73
2019-03-26T23:53:19.469Z,7.77
2019-03-26T23:55:55.591Z,7.60
2019-03-26T23:58:32.287Z,7.60
